Time;durP1;ratioP1;P1;durP2;ratioP2;P2;SDS_P1;SDS_P2;PMS_P1;PMS_P2;Temp;Humidity;BMP_temperature;BMP_pressure;BME280_temperature;BME280_humidity;BME280_pressure;Samples;Min_cycle;Max_cycle;Signal;HPM_P1;HPM_P2
2024/01/02 00:01:34;;;;;;;2.67;1.20;;;8.70;99.90;;;;;;5096119;28;20196;-72
2024/01/02 00:04:00;;;;;;;1.83;1.20;;;8.70;99.90;;;;;;5096238;28;20168;-72
2024/01/02 00:06:25;;;;;;;1.30;0.83;;;8.70;99.90;;;;;;5096464;28;20245;-72
2024/01/02 00:08:51;;;;;;;2.00;1.03;;;8.70;99.90;;;;;;5096174;28;20274;-73
2024/01/02 00:11:16;;;;;;;2.47;1.10;;;8.60;99.90;;;;;;5096309;28;20187;-74
2024/01/02 00:13:42;;;;;;;1.83;1.00;;;8.60;99.90;;;;;;5096071;28;20167;-72
2024/01/02 00:16:07;;;;;;;1.13;1.03;;;8.60;99.90;;;;;;5095846;28;20172;-72
2024/01/02 00:18:33;;;;;;;1.17;1.07;;;8.70;99.90;;;;;;5096213;28;20549;-71
2024/01/02 00:20:59;;;;;;;2.13;0.90;;;8.70;99.90;;;;;;5096225;28;20256;-72
2024/01/02 00:23:25;;;;;;;1.70;1.10;;;8.70;99.90;;;;;;5096045;28;20540;-72
2024/01/02 00:25:50;;;;;;;1.20;0.70;;;8.70;99.90;;;;;;5096100;28;20738;-73
2024/01/02 00:28:17;;;;;;;0.80;0.70;;;8.70;99.90;;;;;;5095622;28;20184;-73
2024/01/02 00:30:43;;;;;;;1.57;0.90;;;8.70;99.90;;;;;;5095803;28;20209;-72
2024/01/02 00:33:09;;;;;;;1.30;0.70;;;8.70;99.90;;;;;;5095883;28;20172;-72
2024/01/02 00:35:34;;;;;;;1.23;0.80;;;8.80;99.90;;;;;;5077702;28;20184;-72
2024/01/02 00:38:00;;;;;;;2.03;0.83;;;8.80;99.90;;;;;;5096027;28;20168;-72
2024/01/02 00:40:26;;;;;;;1.00;0.70;;;8.80;99.90;;;;;;5095676;28;20172;-72
2024/01/02 00:42:52;;;;;;;0.33;0.33;;;8.90;99.90;;;;;;5095886;28;20626;-72
2024/01/02 00:45:18;;;;;;;0.77;0.50;;;8.90;99.90;;;;;;5095218;28;20235;-72
2024/01/02 00:47:43;;;;;;;1.03;0.70;;;9.00;99.90;;;;;;5095576;28;20616;-72
2024/01/02 00:50:09;;;;;;;0.77;0.77;;;9.00;99.90;;;;;;5095567;28;20176;-72
2024/01/02 00:52:35;;;;;;;0.83;0.60;;;9.00;99.90;;;;;;5095544;28;20248;-72
2024/01/02 00:55:02;;;;;;;1.03;0.60;;;9.00;99.90;;;;;;5095455;28;20172;-72
2024/01/02 00:57:27;;;;;;;0.60;0.60;;;9.10;99.90;;;;;;5095507;28;20168;-73
2024/01/02 00:59:53;;;;;;;0.50;0.50;;;9.10;99.90;;;;;;5095086;28;20520;-72
2024/01/02 01:02:19;;;;;;;2.20;0.83;;;9.10;99.90;;;;;;5077166;28;20254;-72
2024/01/02 01:04:45;;;;;;;0.77;0.67;;;9.10;99.90;;;;;;5094333;28;20219;-71
2024/01/02 01:07:11;;;;;;;0.50;0.50;;;9.10;99.90;;;;;;5095106;28;20190;-71
2024/01/02 01:09:38;;;;;;;0.73;0.73;;;9.20;99.90;;;;;;5095317;28;20282;-72
2024/01/02 01:12:04;;;;;;;1.40;0.50;;;9.30;99.90;;;;;;5095073;28;20181;-71
2024/01/02 01:14:30;;;;;;;1.03;0.40;;;9.30;99.90;;;;;;5094737;28;20524;-71
2024/01/02 01:16:55;;;;;;;0.43;0.43;;;9.30;99.90;;;;;;5095197;28;20221;-72
2024/01/02 01:19:21;;;;;;;0.53;0.40;;;9.30;99.90;;;;;;5095046;28;20194;-72
2024/01/02 01:21:47;;;;;;;0.37;0.20;;;9.30;99.90;;;;;;5094734;28;20613;-72
2024/01/02 01:24:12;;;;;;;1.03;0.40;;;9.40;99.90;;;;;;5094969;28;20180;-71
2024/01/02 01:26:38;;;;;;;0.70;0.50;;;9.40;99.90;;;;;;5094823;28;20211;-72
2024/01/02 01:29:03;;;;;;;2.93;0.30;;;9.40;99.90;;;;;;5094368;28;20685;-72
2024/01/02 01:31:29;;;;;;;2.90;0.50;;;9.40;99.90;;;;;;5094771;28;20680;-72
2024/01/02 01:33:55;;;;;;;0.90;0.63;;;9.40;99.90;;;;;;5094703;28;20168;-71
2024/01/02 01:36:20;;;;;;;0.40;0.40;;;9.40;99.90;;;;;;5094737;28;20172;-72
2024/01/02 01:38:47;;;;;;;0.20;0.20;;;9.40;99.90;;;;;;5094423;28;20172;-71
2024/01/02 01:41:13;;;;;;;0.63;0.40;;;9.40;99.90;;;;;;5094556;28;20175;-72
2024/01/02 01:43:38;;;;;;;0.97;0.50;;;9.50;99.90;;;;;;5094177;28;20169;-71
2024/01/02 01:46:05;;;;;;;0.40;0.40;;;9.50;99.90;;;;;;5094364;28;20210;-72
2024/01/02 01:48:31;;;;;;;0.40;0.33;;;9.50;99.90;;;;;;5094613;28;20172;-72
2024/01/02 01:50:57;;;;;;;1.00;0.50;;;9.50;99.90;;;;;;5094230;28;20595;-71
2024/01/02 01:53:23;;;;;;;2.37;0.60;;;9.60;99.90;;;;;;5094165;28;20176;-72
2024/01/02 01:55:50;;;;;;;0.40;0.30;;;9.60;99.90;;;;;;5094227;28;20170;-71
2024/01/02 01:58:16;;;;;;;1.27;0.43;;;9.60;99.90;;;;;;5093938;28;20221;-71
2024/01/02 02:00:43;;;;;;;0.70;0.50;;;9.70;99.90;;;;;;5094141;28;20168;-71
2024/01/02 02:03:10;;;;;;;0.77;0.30;;;9.70;99.90;;;;;;5075965;28;20205;-72
2024/01/02 02:05:36;;;;;;;0.40;0.30;;;9.80;99.90;;;;;;5093777;28;20256;-72
2024/01/02 02:08:01;;;;;;;0.33;0.33;;;9.90;99.90;;;;;;5094057;28;20540;-72
2024/01/02 02:10:29;;;;;;;0.30;0.30;;;9.80;99.90;;;;;;5094001;28;20203;-72
2024/01/02 02:12:57;;;;;;;1.03;0.50;;;9.80;99.90;;;;;;5093673;28;20181;-72
2024/01/02 02:15:23;;;;;;;0.30;0.30;;;9.80;99.90;;;;;;5093943;28;20673;-72
2024/01/02 02:17:49;;;;;;;0.23;0.23;;;9.80;99.90;;;;;;5094006;28;20188;-71
2024/01/02 02:20:14;;;;;;;0.40;0.40;;;9.80;99.90;;;;;;5093825;28;20211;-72
2024/01/02 02:22:49;;;;;;;0.57;0.40;;;9.90;99.90;;;;;;5093829;28;20202;-71
2024/01/02 02:25:16;;;;;;;0.30;0.30;;;9.90;99.90;;;;;;5093650;28;20651;-71
2024/01/02 02:27:41;;;;;;;0.43;0.30;;;9.90;99.90;;;;;;5093604;28;20194;-72
2024/01/02 02:30:07;;;;;;;0.30;0.30;;;9.90;99.90;;;;;;5093575;28;20227;-72
2024/01/02 02:32:33;;;;;;;0.20;0.20;;;10.00;99.90;;;;;;5093456;28;20179;-71
2024/01/02 02:34:59;;;;;;;0.40;0.40;;;10.00;99.90;;;;;;5093554;28;20156;-71
2024/01/02 02:37:24;;;;;;;0.40;0.30;;;10.00;99.90;;;;;;5093407;28;20181;-72
2024/01/02 02:39:50;;;;;;;0.30;0.30;;;10.10;99.90;;;;;;5093463;28;20176;-71
2024/01/02 02:42:15;;;;;;;0.40;0.40;;;10.10;99.90;;;;;;5093236;28;20229;-71
2024/01/02 02:44:42;;;;;;;0.33;0.30;;;10.10;99.90;;;;;;5093332;28;20207;-72
2024/01/02 02:47:09;;;;;;;0.57;0.30;;;10.10;99.90;;;;;;5093520;28;20164;-71
2024/01/02 02:49:35;;;;;;;0.30;0.30;;;10.10;99.90;;;;;;5075337;28;20172;-71
2024/01/02 02:52:00;;;;;;;0.23;0.23;;;10.20;99.90;;;;;;5093563;28;20263;-70
2024/01/02 02:54:26;;;;;;;0.40;0.40;;;10.30;99.90;;;;;;5093367;28;20199;-71
2024/01/02 02:56:51;;;;;;;1.23;0.50;;;10.30;99.90;;;;;;5092986;28;20174;-70
2024/01/02 02:59:17;;;;;;;0.97;0.30;;;10.30;99.90;;;;;;5093366;28;20168;-72
2024/01/02 03:01:42;;;;;;;0.50;0.30;;;10.30;99.90;;;;;;5093216;28;20174;-72
2024/01/02 03:04:08;;;;;;;0.60;0.40;;;10.30;99.90;;;;;;5093363;28;20644;-71
2024/01/02 03:06:33;;;;;;;1.00;0.70;;;10.30;99.90;;;;;;5093389;28;20210;-72
2024/01/02 03:08:59;;;;;;;0.70;0.30;;;10.40;99.90;;;;;;5093057;28;20219;-71
2024/01/02 03:11:24;;;;;;;0.47;0.47;;;10.40;99.90;;;;;;5092820;28;20203;-71
2024/01/02 03:13:50;;;;;;;0.60;0.60;;;10.40;99.90;;;;;;5093147;28;20168;-71
2024/01/02 03:16:16;;;;;;;0.70;0.60;;;10.40;99.90;;;;;;5093308;28;20174;-71
2024/01/02 03:18:41;;;;;;;1.47;0.60;;;10.40;99.90;;;;;;5093128;28;20615;-71
2024/01/02 03:21:13;;;;;;;0.90;0.77;;;10.40;99.90;;;;;;5093112;28;20170;-70
2024/01/02 03:23:38;;;;;;;0.70;0.70;;;10.50;99.90;;;;;;5093077;28;20312;-72
2024/01/02 03:26:04;;;;;;;0.70;0.70;;;10.40;99.90;;;;;;5092621;28;20208;-71
2024/01/02 03:28:31;;;;;;;1.10;1.00;;;10.40;99.90;;;;;;5094772;28;20285;-70
2024/01/02 03:30:57;;;;;;;0.90;0.90;;;10.50;99.90;;;;;;5097121;28;20199;-71
2024/01/02 03:33:23;;;;;;;0.80;0.80;;;10.50;99.90;;;;;;5097025;28;20207;-71
2024/01/02 03:35:48;;;;;;;1.17;1.07;;;10.60;99.90;;;;;;5097021;28;20579;-70
2024/01/02 03:38:15;;;;;;;1.00;1.00;;;10.60;99.90;;;;;;5097052;28;20183;-71
2024/01/02 03:40:40;;;;;;;0.80;0.60;;;10.60;99.90;;;;;;5096337;28;20164;-71
2024/01/02 03:43:06;;;;;;;0.67;0.50;;;10.70;99.90;;;;;;5078596;28;20202;-71
2024/01/02 03:45:32;;;;;;;0.70;0.60;;;10.70;99.90;;;;;;5096583;28;20662;-70
2024/01/02 03:47:59;;;;;;;0.40;0.40;;;10.80;99.90;;;;;;5096866;28;20243;-72
2024/01/02 03:50:24;;;;;;;0.30;0.30;;;10.80;99.90;;;;;;5096522;28;20168;-71
2024/01/02 03:52:50;;;;;;;0.40;0.40;;;10.90;99.90;;;;;;5078279;28;20172;-71
2024/01/02 03:55:16;;;;;;;0.40;0.30;;;10.90;99.90;;;;;;5077865;28;20180;-71
2024/01/02 03:57:41;;;;;;;0.20;0.20;;;10.90;99.90;;;;;;5096465;28;20172;-71
2024/01/02 04:00:08;;;;;;;0.10;0.10;;;11.00;99.90;;;;;;5078348;28;20251;-70
2024/01/02 04:02:34;;;;;;;0.33;0.27;;;11.00;99.90;;;;;;5096200;28;20160;-71
2024/01/02 04:04:59;;;;;;;0.17;0.17;;;11.10;99.90;;;;;;5078040;28;20276;-71
2024/01/02 04:07:25;;;;;;;0.40;0.20;;;11.10;99.90;;;;;;5096356;28;20191;-71
2024/01/02 04:09:51;;;;;;;0.30;0.30;;;11.10;99.90;;;;;;5095900;28;20195;-71
2024/01/02 04:12:16;;;;;;;0.20;0.20;;;11.10;99.90;;;;;;5096136;28;20164;-72
2024/01/02 04:14:42;;;;;;;0.30;0.30;;;11.10;99.90;;;;;;5095813;28;20221;-71
2024/01/02 04:17:08;;;;;;;0.20;0.20;;;11.10;99.90;;;;;;5095988;28;20168;-71
2024/01/02 04:19:34;;;;;;;0.20;0.20;;;11.10;99.90;;;;;;5095841;28;20164;-71
2024/01/02 04:21:59;;;;;;;0.10;0.10;;;11.10;99.90;;;;;;5095738;28;20232;-71
2024/01/02 04:24:25;;;;;;;0.10;0.10;;;11.20;99.90;;;;;;5095562;28;20171;-71
2024/01/02 04:26:52;;;;;;;0.47;0.20;;;11.10;99.90;;;;;;5095672;28;20587;-71
2024/01/02 04:29:17;;;;;;;0.37;0.17;;;11.20;99.90;;;;;;5095545;28;20331;-71
2024/01/02 04:31:43;;;;;;;0.40;0.20;;;11.20;99.90;;;;;;5095816;28;20271;-71
2024/01/02 04:34:08;;;;;;;0.30;0.30;;;11.20;99.90;;;;;;5095845;28;20627;-72
2024/01/02 04:36:34;;;;;;;0.10;0.10;;;11.20;99.90;;;;;;5095660;28;20172;-71
2024/01/02 04:38:59;;;;;;;0.20;0.20;;;11.20;99.90;;;;;;5094729;28;20642;-71
2024/01/02 04:41:25;;;;;;;1.20;0.30;;;11.20;99.90;;;;;;5094783;28;20561;-72
2024/01/02 04:43:51;;;;;;;0.20;0.20;;;11.20;99.90;;;;;;5095456;28;20167;-71
2024/01/02 04:46:16;;;;;;;0.80;0.20;;;11.30;99.90;;;;;;5095193;28;20212;-71
2024/01/02 04:48:42;;;;;;;0.40;0.20;;;11.30;99.90;;;;;;5095518;28;20167;-71
2024/01/02 04:51:07;;;;;;;0.20;0.20;;;11.20;99.90;;;;;;5095259;28;20175;-71
2024/01/02 04:53:33;;;;;;;0.13;0.13;;;11.20;99.90;;;;;;5094703;28;20175;-71
2024/01/02 04:55:58;;;;;;;0.00;0.00;;;11.30;99.90;;;;;;5094937;28;20254;-71
2024/01/02 04:58:24;;;;;;;0.23;0.20;;;11.30;99.90;;;;;;5094997;28;20168;-71
2024/01/02 05:00:50;;;;;;;0.30;0.17;;;11.30;99.90;;;;;;5095224;28;20700;-71
2024/01/02 05:03:15;;;;;;;0.20;0.20;;;11.30;99.90;;;;;;5095190;28;20218;-71
2024/01/02 05:05:41;;;;;;;0.20;0.20;;;11.30;99.90;;;;;;5094230;28;20211;-71
2024/01/02 05:08:06;;;;;;;0.50;0.20;;;11.40;99.90;;;;;;5094628;28;20168;-72
2024/01/02 05:10:32;;;;;;;0.20;0.20;;;11.40;99.90;;;;;;5094539;28;20267;-71
2024/01/02 05:12:58;;;;;;;0.20;0.20;;;11.40;99.90;;;;;;5094599;28;20208;-71
2024/01/02 05:15:23;;;;;;;0.40;0.17;;;11.40;99.90;;;;;;5094602;28;20172;-71
2024/01/02 05:17:49;;;;;;;0.13;0.13;;;11.40;99.90;;;;;;5094767;28;20199;-71
2024/01/02 05:20:15;;;;;;;0.50;0.20;;;11.40;99.90;;;;;;5094531;28;20164;-71
2024/01/02 05:22:40;;;;;;;0.20;0.20;;;11.40;99.90;;;;;;5094121;28;20259;-72
2024/01/02 05:25:09;;;;;;;0.30;0.27;;;11.50;99.90;;;;;;5094612;28;20206;-72
2024/01/02 05:27:35;;;;;;;0.30;0.30;;;11.50;99.90;;;;;;5094233;28;20225;-72
2024/01/02 05:30:01;;;;;;;0.40;0.30;;;11.50;99.90;;;;;;5094223;28;20207;-72
2024/01/02 05:32:27;;;;;;;0.47;0.40;;;11.50;99.90;;;;;;5094185;28;20172;-71
2024/01/02 05:34:53;;;;;;;0.40;0.40;;;11.60;99.90;;;;;;5093728;28;20179;-71
2024/01/02 05:37:18;;;;;;;0.73;0.30;;;11.60;99.90;;;;;;5094240;28;20168;-72
2024/01/02 05:39:44;;;;;;;0.73;0.40;;;11.60;99.90;;;;;;5094450;28;20190;-72
2024/01/02 05:42:09;;;;;;;0.30;0.30;;;11.60;99.90;;;;;;5093805;28;20168;-72
2024/01/02 05:44:35;;;;;;;0.30;0.30;;;11.70;99.90;;;;;;5093999;28;20272;-72
2024/01/02 05:47:00;;;;;;;0.30;0.30;;;11.60;99.90;;;;;;5093772;28;20164;-72
2024/01/02 05:49:26;;;;;;;0.47;0.47;;;11.70;99.90;;;;;;5093912;28;20606;-72
2024/01/02 05:51:52;;;;;;;0.30;0.30;;;11.70;99.90;;;;;;5074843;28;20527;-73
2024/01/02 05:54:17;;;;;;;0.30;0.30;;;11.70;99.90;;;;;;5094166;28;20176;-72
2024/01/02 05:56:43;;;;;;;1.10;0.30;;;11.70;99.90;;;;;;5093912;28;20197;-72
2024/01/02 05:59:09;;;;;;;1.60;0.60;;;11.70;99.90;;;;;;5075596;28;20171;-72
2024/01/02 06:01:34;;;;;;;0.20;0.20;;;11.70;99.90;;;;;;5093827;28;20168;-72
2024/01/02 06:04:00;;;;;;;0.30;0.30;;;11.70;99.90;;;;;;5093715;28;20275;-73
2024/01/02 06:06:26;;;;;;;0.47;0.40;;;11.80;99.90;;;;;;5093832;28;20251;-72
2024/01/02 06:08:51;;;;;;;0.73;0.20;;;11.80;99.90;;;;;;5075431;28;20647;-72
2024/01/02 06:11:17;;;;;;;0.10;0.10;;;11.80;99.90;;;;;;5093328;28;20580;-72
2024/01/02 06:13:42;;;;;;;0.40;0.30;;;11.70;99.90;;;;;;5075196;28;20760;-71
2024/01/02 06:16:10;;;;;;;0.30;0.30;;;11.70;99.90;;;;;;5092850;28;20649;-72
2024/01/02 06:18:37;;;;;;;0.20;0.20;;;11.80;99.90;;;;;;5092781;28;20179;-71
2024/01/02 06:21:04;;;;;;;0.43;0.17;;;11.80;99.90;;;;;;5093128;28;20176;-72
2024/01/02 06:23:33;;;;;;;0.20;0.20;;;11.70;99.90;;;;;;5093063;28;20214;-72
2024/01/02 06:25:59;;;;;;;0.27;0.27;;;11.70;99.90;;;;;;5093425;28;20211;-71
2024/01/02 06:28:25;;;;;;;0.90;0.20;;;11.80;99.90;;;;;;5092567;28;20643;-73
2024/01/02 06:30:50;;;;;;;0.40;0.40;;;11.80;99.90;;;;;;5075074;28;20275;-72
2024/01/02 06:33:16;;;;;;;0.30;0.30;;;11.70;99.90;;;;;;5092832;28;20175;-72
2024/01/02 06:35:41;;;;;;;0.30;0.30;;;11.80;99.90;;;;;;5092960;28;20256;-72
2024/01/02 06:38:08;;;;;;;0.53;0.37;;;11.80;99.90;;;;;;5094200;28;20274;-72
2024/01/02 06:40:34;;;;;;;0.30;0.30;;;11.80;99.90;;;;;;5092857;28;20215;-72
2024/01/02 06:43:00;;;;;;;0.33;0.30;;;11.80;99.90;;;;;;5093088;28;20203;-72
2024/01/02 06:45:26;;;;;;;0.33;0.33;;;11.80;99.90;;;;;;5092730;28;20678;-72
2024/01/02 06:47:51;;;;;;;0.20;0.20;;;11.80;99.90;;;;;;5074371;28;20635;-71
2024/01/02 06:50:17;;;;;;;3.13;0.50;;;11.80;99.90;;;;;;5092347;28;20180;-72
2024/01/02 06:52:42;;;;;;;0.30;0.30;;;11.80;99.90;;;;;;5092459;28;20168;-73
2024/01/02 06:55:08;;;;;;;0.80;0.43;;;11.80;99.90;;;;;;5092096;28;20282;-73
2024/01/02 06:57:33;;;;;;;0.50;0.50;;;11.80;99.90;;;;;;5092549;28;20271;-72
2024/01/02 06:59:59;;;;;;;0.40;0.40;;;11.90;99.90;;;;;;5092830;28;20168;-72
2024/01/02 07:02:24;;;;;;;0.70;0.70;;;11.90;99.90;;;;;;5092170;28;20168;-74
2024/01/02 07:04:50;;;;;;;0.40;0.40;;;11.90;99.90;;;;;;5092396;28;20195;-73
2024/01/02 07:07:15;;;;;;;0.50;0.50;;;11.80;99.90;;;;;;5092814;28;20658;-72
2024/01/02 07:09:41;;;;;;;0.57;0.57;;;11.90;99.90;;;;;;5092293;28;20215;-73
2024/01/02 07:12:08;;;;;;;0.53;0.50;;;11.90;99.90;;;;;;5092001;28;20175;-72
2024/01/02 07:14:34;;;;;;;1.00;0.80;;;11.90;99.90;;;;;;5092545;28;20210;-72
2024/01/02 07:16:59;;;;;;;0.50;0.50;;;11.80;99.90;;;;;;5091984;28;20192;-72
2024/01/02 07:19:25;;;;;;;1.17;0.70;;;11.80;99.90;;;;;;5092460;28;20647;-73
2024/01/02 07:21:51;;;;;;;1.27;0.60;;;11.80;99.90;;;;;;5092639;28;20167;-71
2024/01/02 07:24:17;;;;;;;0.50;0.50;;;11.80;99.90;;;;;;5074349;28;20180;-72
2024/01/02 07:26:42;;;;;;;0.80;0.80;;;11.80;99.90;;;;;;5092447;28;20254;-72
2024/01/02 07:29:08;;;;;;;0.60;0.60;;;11.80;99.90;;;;;;5091927;28;20211;-72
2024/01/02 07:31:35;;;;;;;0.80;0.80;;;11.80;99.90;;;;;;5091427;28;20243;-72
2024/01/02 07:34:01;;;;;;;1.27;0.70;;;11.90;99.90;;;;;;5091979;28;20164;-72
2024/01/02 07:36:27;;;;;;;1.07;0.80;;;11.80;99.90;;;;;;5092319;28;20262;-73
2024/01/02 07:38:53;;;;;;;0.70;0.63;;;11.90;99.90;;;;;;5091697;28;20215;-72
2024/01/02 07:41:18;;;;;;;0.60;0.60;;;11.90;99.90;;;;;;5092426;28;20172;-71
2024/01/02 07:43:44;;;;;;;0.70;0.70;;;11.90;99.90;;;;;;5092213;28;20171;-73
2024/01/02 07:46:09;;;;;;;1.23;0.70;;;11.90;99.90;;;;;;5091530;28;20199;-73
2024/01/02 07:48:35;;;;;;;2.53;0.50;;;11.80;99.90;;;;;;5091678;28;20175;-74
2024/01/02 07:51:01;;;;;;;0.60;0.60;;;11.90;99.90;;;;;;5091930;28;20217;-72
2024/01/02 07:53:26;;;;;;;1.00;0.70;;;11.90;99.90;;;;;;5091586;28;20168;-73
2024/01/02 07:55:52;;;;;;;0.73;0.53;;;11.90;99.90;;;;;;5091484;28;20249;-72
2024/01/02 07:58:17;;;;;;;0.30;0.30;;;11.90;99.90;;;;;;5091764;28;20615;-72
2024/01/02 08:00:43;;;;;;;0.67;0.50;;;12.00;99.90;;;;;;5091206;28;20240;-73
2024/01/02 08:03:09;;;;;;;0.73;0.40;;;12.00;99.90;;;;;;5091688;28;20301;-74
2024/01/02 08:05:35;;;;;;;0.87;0.50;;;12.00;99.90;;;;;;5091445;28;20634;-74
2024/01/02 08:08:02;;;;;;;0.50;0.50;;;12.00;99.90;;;;;;5073765;28;20179;-73
2024/01/02 08:10:28;;;;;;;0.40;0.40;;;12.00;99.90;;;;;;5092134;28;20203;-73
2024/01/02 08:12:53;;;;;;;1.33;0.50;;;12.10;99.90;;;;;;5091750;28;20599;-72
2024/01/02 08:15:19;;;;;;;0.40;0.40;;;12.00;99.90;;;;;;5094582;28;20172;-73
2024/01/02 08:17:45;;;;;;;0.40;0.40;;;12.10;99.90;;;;;;5095731;28;20178;-73
2024/01/02 08:20:11;;;;;;;0.90;0.50;;;12.10;99.90;;;;;;5077239;28;20199;-72
2024/01/02 08:22:37;;;;;;;0.50;0.40;;;12.10;99.90;;;;;;5095746;28;20203;-73
2024/01/02 08:25:03;;;;;;;0.50;0.50;;;12.10;99.90;;;;;;5077345;28;20227;-72
2024/01/02 08:27:29;;;;;;;0.57;0.40;;;12.10;99.90;;;;;;5077384;28;20178;-72
2024/01/02 08:29:54;;;;;;;0.60;0.40;;;12.10;99.90;;;;;;5094503;28;20520;-73
2024/01/02 08:32:21;;;;;;;0.90;0.90;;;12.10;99.90;;;;;;5095038;28;20167;-72
2024/01/02 08:34:47;;;;;;;1.30;0.67;;;12.10;99.90;;;;;;5094607;28;20641;-73
2024/01/02 08:37:13;;;;;;;1.40;0.70;;;12.00;99.90;;;;;;5095126;28;20164;-72
2024/01/02 08:39:39;;;;;;;1.80;0.77;;;12.10;99.90;;;;;;5094763;28;20203;-73
2024/01/02 08:42:05;;;;;;;0.70;0.70;;;12.00;99.90;;;;;;5095294;28;20317;-72
2024/01/02 08:44:31;;;;;;;0.57;0.57;;;12.10;99.90;;;;;;5076203;28;20648;-72
2024/01/02 08:46:56;;;;;;;1.03;0.60;;;12.00;99.90;;;;;;5095154;28;20251;-72
2024/01/02 08:49:22;;;;;;;1.40;0.63;;;12.10;99.90;;;;;;5094432;28;20179;-72
2024/01/02 08:51:47;;;;;;;1.00;0.80;;;12.10;99.90;;;;;;5094530;28;20572;-72
2024/01/02 08:54:13;;;;;;;5.60;0.90;;;12.10;99.90;;;;;;5094752;28;20523;-72
2024/01/02 08:56:38;;;;;;;1.37;1.00;;;12.10;99.90;;;;;;5095042;28;20524;-72
2024/01/02 08:59:04;;;;;;;0.77;0.63;;;12.10;99.90;;;;;;5094766;28;20699;-73
2024/01/02 09:01:30;;;;;;;1.63;0.77;;;12.10;99.90;;;;;;5094078;28;20259;-72
2024/01/02 09:03:55;;;;;;;1.97;1.03;;;12.00;99.90;;;;;;5094272;28;20627;-72
2024/01/02 09:06:21;;;;;;;0.80;0.80;;;12.10;99.90;;;;;;5094323;28;20203;-72
2024/01/02 09:08:47;;;;;;;0.93;0.63;;;12.00;99.90;;;;;;5094424;28;20196;-72
2024/01/02 09:11:13;;;;;;;0.97;0.70;;;12.00;99.90;;;;;;5093898;28;20179;-72
2024/01/02 09:13:38;;;;;;;3.97;1.20;;;12.00;99.90;;;;;;5094355;28;20168;-72
2024/01/02 09:16:05;;;;;;;3.30;1.63;;;12.00;99.90;;;;;;5094053;28;20164;-72
2024/01/02 09:18:31;;;;;;;3.03;2.03;;;12.10;99.90;;;;;;5094796;28;20217;-71
2024/01/02 09:20:57;;;;;;;3.63;2.30;;;12.10;99.90;;;;;;5094026;28;20175;-71
2024/01/02 09:23:23;;;;;;;3.87;2.63;;;12.10;99.90;;;;;;5075826;28;20266;-72
2024/01/02 09:25:50;;;;;;;3.70;2.40;;;12.10;99.90;;;;;;5093964;28;20643;-72
2024/01/02 09:28:17;;;;;;;3.47;2.23;;;12.10;99.90;;;;;;5075851;28;20639;-74
2024/01/02 09:30:43;;;;;;;3.53;2.07;;;12.10;99.90;;;;;;5094014;28;20259;-72
2024/01/02 09:33:09;;;;;;;2.83;2.00;;;12.10;99.90;;;;;;5094492;28;20700;-72
2024/01/02 09:35:36;;;;;;;1.70;1.60;;;12.20;99.90;;;;;;5094389;28;20473;-71
2024/01/02 09:38:04;;;;;;;2.33;1.50;;;12.20;99.90;;;;;;5075351;28;20167;-72
2024/01/02 09:40:36;;;;;;;1.47;1.30;;;12.20;99.90;;;;;;5076034;28;20175;-72
2024/01/02 09:43:37;;;;;;;2.10;0.70;;;12.10;99.90;;;;;;5093682;28;20159;-72
2024/01/02 09:46:03;;;;;;;1.07;0.97;;;12.10;99.90;;;;;;5093267;28;20215;-72
2024/01/02 09:48:38;;;;;;;0.80;0.80;;;12.00;99.90;;;;;;5093788;28;20166;-72
2024/01/02 09:51:07;;;;;;;0.70;0.70;;;12.00;99.90;;;;;;5093386;28;20167;-72
2024/01/02 09:53:50;;;;;;;1.30;0.97;;;12.00;99.90;;;;;;5093782;28;20160;-73
2024/01/02 09:56:40;;;;;;;0.90;0.70;;;12.00;99.90;;;;;;5075571;28;20171;-72
2024/01/02 09:59:34;;;;;;;0.60;0.60;;;12.00;99.90;;;;;;5093563;28;20171;-72
2024/01/02 10:02:18;;;;;;;0.50;0.50;;;11.90;99.90;;;;;;5093422;28;20172;-72
2024/01/02 10:05:11;;;;;;;0.50;0.50;;;11.80;99.90;;;;;;5092960;28;20603;-73
2024/01/02 10:07:52;;;;;;;0.87;0.80;;;11.80;99.90;;;;;;5092931;28;20216;-72
2024/01/02 10:10:33;;;;;;;0.60;0.60;;;11.70;99.90;;;;;;5092900;28;20742;-72
2024/01/02 10:13:14;;;;;;;0.50;0.50;;;11.70;99.90;;;;;;5093398;28;20164;-73
2024/01/02 10:16:06;;;;;;;0.70;0.70;;;11.60;99.90;;;;;;5093100;28;20175;-72
2024/01/02 10:19:01;;;;;;;0.70;0.70;;;11.60;99.90;;;;;;5093168;28;20190;-72
2024/01/02 10:22:08;;;;;;;0.50;0.50;;;11.60;99.90;;;;;;5092767;28;20180;-72
2024/01/02 10:24:58;;;;;;;1.20;1.10;;;11.50;99.90;;;;;;5092829;28;20617;-73
2024/01/02 10:27:53;;;;;;;1.13;0.80;;;11.50;99.90;;;;;;5093001;28;20670;-73
2024/01/02 10:30:23;;;;;;;0.73;0.57;;;11.50;99.90;;;;;;5092726;28;20234;-72
2024/01/02 10:33:11;;;;;;;0.80;0.70;;;11.50;99.90;;;;;;5093290;28;20178;-72
2024/01/02 10:35:45;;;;;;;1.43;0.90;;;11.50;99.90;;;;;;5092836;28;20182;-73
2024/01/02 10:38:12;;;;;;;1.23;0.87;;;11.50;99.90;;;;;;5073841;28;20176;-73
2024/01/02 10:40:42;;;;;;;0.83;0.83;;;11.50;99.90;;;;;;5092736;28;20172;-73
2024/01/02 10:43:21;;;;;;;1.20;1.00;;;11.50;99.90;;;;;;5093228;28;20194;-73
2024/01/02 10:45:56;;;;;;;1.53;1.30;;;11.50;99.90;;;;;;5093058;28;20268;-73
2024/01/02 10:48:32;;;;;;;2.13;0.90;;;11.60;99.90;;;;;;5092547;28;20322;-72
2024/01/02 10:51:08;;;;;;;0.70;0.70;;;11.50;99.90;;;;;;5093180;28;20171;-73
2024/01/02 10:53:39;;;;;;;0.80;0.70;;;11.50;99.90;;;;;;5092762;28;20669;-74
2024/01/02 10:56:19;;;;;;;1.00;1.00;;;11.50;99.90;;;;;;5073513;28;20206;-72
2024/01/02 10:59:12;;;;;;;0.70;0.70;;;11.50;99.90;;;;;;5092384;28;20159;-73
2024/01/02 11:01:42;;;;;;;1.10;0.73;;;11.50;99.90;;;;;;5092811;28;20175;-73
2024/01/02 11:04:25;;;;;;;0.80;0.80;;;11.40;99.90;;;;;;5092725;28;20176;-74
2024/01/02 11:06:56;;;;;;;1.00;0.80;;;11.50;99.90;;;;;;5092854;28;20620;-73
2024/01/02 11:09:40;;;;;;;0.97;0.73;;;11.40;99.90;;;;;;5092173;28;20203;-72
2024/01/02 11:12:08;;;;;;;1.20;1.10;;;11.50;99.90;;;;;;5092252;28;20530;-72
2024/01/02 11:14:37;;;;;;;1.07;1.00;;;11.50;99.90;;;;;;5092514;28;20172;-73
2024/01/02 11:17:03;;;;;;;1.53;0.90;;;11.50;99.90;;;;;;5092447;28;20278;-73
2024/01/02 11:19:40;;;;;;;1.07;0.97;;;11.50;99.90;;;;;;5092512;28;20172;-73
2024/01/02 11:22:13;;;;;;;1.10;1.00;;;11.50;99.90;;;;;;5092136;28;20630;-72
2024/01/02 11:24:49;;;;;;;2.20;1.50;;;11.50;99.90;;;;;;5092318;28;20686;-73
2024/01/02 11:27:19;;;;;;;2.90;1.50;;;11.50;99.90;;;;;;5092015;28;20312;-73
2024/01/02 11:29:48;;;;;;;1.20;1.10;;;11.50;99.90;;;;;;5092413;28;20226;-73
2024/01/02 11:32:18;;;;;;;1.30;1.20;;;11.50;99.90;;;;;;5092220;28;20164;-72
2024/01/02 11:34:59;;;;;;;1.30;1.20;;;11.50;99.90;;;;;;5092307;28;20584;-72
2024/01/02 11:37:38;;;;;;;1.50;1.40;;;11.50;99.90;;;;;;5092523;28;20595;-73
2024/01/02 11:40:26;;;;;;;1.60;1.50;;;11.50;99.90;;;;;;5092036;28;20167;-73
2024/01/02 11:43:02;;;;;;;1.50;1.40;;;11.50;99.90;;;;;;5091171;28;20346;-72
2024/01/02 11:45:33;;;;;;;2.70;1.60;;;11.50;99.90;;;;;;5092248;28;20685;-73
2024/01/02 11:48:04;;;;;;;1.63;1.53;;;11.60;99.90;;;;;;5092317;28;20175;-74
2024/01/02 11:50:50;;;;;;;2.37;1.80;;;11.50;99.90;;;;;;5095462;28;20220;-72
2024/01/02 11:53:46;;;;;;;1.40;1.30;;;11.50;99.90;;;;;;5095688;28;20164;-72
2024/01/02 11:56:13;;;;;;;2.33;2.00;;;11.50;99.90;;;;;;5096142;28;20545;-73
2024/01/02 11:59:03;;;;;;;1.90;1.70;;;11.50;99.90;;;;;;5095590;28;20183;-72
2024/01/02 12:02:08;;;;;;;1.90;1.60;;;11.60;99.90;;;;;;5095769;28;20176;-73
2024/01/02 12:04:54;;;;;;;1.40;1.30;;;11.50;99.90;;;;;;5095513;28;20194;-73
2024/01/02 12:07:25;;;;;;;1.80;1.70;;;11.50;99.90;;;;;;5095489;28;20172;-72
2024/01/02 12:09:52;;;;;;;2.73;1.83;;;11.60;99.90;;;;;;5077131;28;20191;-72
2024/01/02 12:12:17;;;;;;;2.80;2.00;;;11.60;99.90;;;;;;5077247;28;20631;-73
2024/01/02 12:15:15;;;;;;;2.40;2.10;;;11.60;99.90;;;;;;5095998;28;20168;-73
2024/01/02 12:17:52;;;;;;;1.77;1.50;;;11.70;99.90;;;;;;5094942;28;20255;-72
2024/01/02 12:20:18;;;;;;;2.23;1.60;;;11.80;99.90;;;;;;5094766;28;20226;-70
2024/01/02 12:22:44;;;;;;;1.50;1.40;;;11.80;99.90;;;;;;5095920;28;20556;-72
2024/01/02 12:25:11;;;;;;;2.90;1.50;;;11.90;99.90;;;;;;5095399;28;20269;-72
2024/01/02 12:27:39;;;;;;;1.77;1.50;;;12.00;99.90;;;;;;5095045;28;20182;-72
2024/01/02 12:30:06;;;;;;;2.57;1.40;;;12.00;99.90;;;;;;5095062;28;20227;-72
2024/01/02 12:32:52;;;;;;;1.70;1.30;;;12.00;99.90;;;;;;5076613;28;20172;-72
2024/01/02 12:35:44;;;;;;;1.27;1.17;;;12.00;99.90;;;;;;5095077;28;20219;-72
2024/01/02 12:38:18;;;;;;;1.23;1.23;;;12.10;99.90;;;;;;5053742;28;20595;-72
2024/01/02 12:40:48;;;;;;;1.40;1.10;;;12.10;99.90;;;;;;5095155;28;20168;-72
2024/01/02 12:43:29;;;;;;;1.23;0.97;;;12.20;99.90;;;;;;5094496;28;20176;-72
2024/01/02 12:46:06;;;;;;;0.93;0.93;;;12.20;99.90;;;;;;5094907;28;20199;-73
2024/01/02 12:48:43;;;;;;;1.37;1.00;;;12.20;99.90;;;;;;5094473;28;20178;-72
2024/01/02 12:51:10;;;;;;;1.60;0.87;;;12.20;99.90;;;;;;5093915;28;20171;-72
2024/01/02 12:53:40;;;;;;;1.20;1.10;;;12.30;99.90;;;;;;5094836;28;20190;-72
2024/01/02 12:56:08;;;;;;;0.90;0.80;;;12.40;99.90;;;;;;5076546;28;20187;-73